Latest Coastal Weather Observations for Hobart

IDT60701

Issued at 2:52 pm EST Tuesday 25 July 2017 (issued every 10 minutes, with the page automatically refreshed every 10 minutes)

About coastal observations | Map of coastal stations | Coastal observations for TAS | Marine services | Other Formats
Station Details ID: 094029 Name: HOBART (ELLERSLIE ROAD) Lat: -42.89 Lon: 147.33 Height: 50.5 m
Data from the previous 72 hours. | See also: Recent months at Hobart
Date/Time
EST
Temp
°C
Wind Pressure Rain since
9am
mm
Weather Cloud Vis
km
Sea
Height
m
Swell
Dir  Spd
kts
Gust
kts
hPa Trend Height
m
Period
s
Dir
25/02:30pm 15.8 NW 11 22 1002.6 - 0.0 - - - - - - -
25/02:00pm 15.1 NNW 14 22 1002.7 - 0.0 - - - - - - -
25/01:43pm 15.1 NNW 15 25 1002.8 - 0.0 - - - - - - -
25/01:30pm 15.2 NNW 13 20 1002.8 - 0.0 - - - - - - -
25/01:00pm 15.2 NNW 10 19 1003.4 - 0.0 - - - - - - -
25/12:30pm 12.7 N 9 16 1003.8 - 0.0 - - - - - - -
25/12:00pm 12.0 NNE 11 16 1004.3 - 0.0 - - - - - - -
25/11:30am 11.1 N 13 18 1005.0 - 0.0 - - - - - - -
25/11:00am 10.0 N 11 15 1005.7 - 0.0 - - - - - - -
25/10:30am 8.6 NNW 8 12 1006.3 - 0.0 - - - - - - -
25/10:00am 7.8 NNW 5 9 1006.6 - 0.0 - - - - - - -
25/09:30am 7.2 NNW 6 11 1006.9 - 0.0 - - - - - - -
25/09:00am 6.6 NE 5 7 1006.8 - 1.4 Rain - - - - - -
25/08:30am 6.3 SW 4 6 1007.7 - 0.6 - - - - - - -
25/08:00am 5.9 NNE 2 3 1007.2 - 0.2 - - - - - - -
25/07:30am 5.9 SSW 3 5 1007.3 - 0.2 - - - - - - -
25/07:00am 6.4 NNW 7 10 1007.6 - 0.2 - - - - - - -
25/06:30am 6.2 NW 6 8 1008.0 - 0.2 - - - - - - -
25/06:00am 6.7 NNW 7 9 1008.2 - 0.0 - - - - - - -
25/05:30am 6.4 N 3 4 1008.6 - 0.0 - - - - - - -
25/05:00am 6.4 NNE 4 5 1008.9 - 0.0 - - - - - - -
25/04:30am 6.3 NNW 1 4 1009.5 - 0.0 - - - - - - -
25/04:00am 6.4 NNW 4 6 1009.7 - 0.0 - - - - - - -
25/03:30am 7.0 NNW 8 11 1010.2 - 0.0 - - - - - - -
25/03:00am 6.9 NNW 8 12 1010.4 - 0.0 - - - - - - -
25/02:30am 7.1 N 6 9 1010.7 - 0.0 - - - - - - -
25/02:00am 7.0 N 7 10 1010.7 - 0.0 - - - - - - -
25/01:30am 7.1 N 8 11 1010.8 - 0.0 - - - - - - -
25/01:00am 7.2 N 9 13 1010.9 - 0.0 - - - - - - -
25/12:30am 7.4 NNW 10 15 1011.2 - 0.0 - - - - - - -
25/12:00am 7.9 N 12 17 1011.0 - 0.0 - - - - - - -
 
Date/Time
EST
Temp
°C
Wind Pressure Rain since
9am
mm
Weather Cloud Vis
km
Sea
Height
m
Swell
Dir  Spd
kts
Gust
kts
hPa Trend Height
m
Period
s
Dir
24/11:30pm 8.0 NNW 15 20 1011.0 - 0.0 - - - - - - -
24/11:00pm 7.8 NNW 13 18 1011.0 - 0.0 - - - - - - -
24/10:30pm 7.7 NNW 12 20 1011.2 - 0.0 - - - - - - -
24/10:00pm 7.9 NNW 11 18 1011.2 - 0.0 - - - - - - -
24/09:30pm 7.7 N 10 13 1011.3 - 0.0 - - - - - - -
24/09:00pm 7.8 N 9 13 1011.4 - 0.0 - - - - - - -
24/08:30pm 8.0 N 12 17 1011.6 - 0.0 - - - - - - -
24/08:00pm 8.3 N 13 17 1011.3 - 0.0 - - - - - - -
24/07:30pm 8.5 N 11 16 1011.5 - 0.0 - - - - - - -
24/07:00pm 8.7 N 10 15 1011.5 - 0.0 - - - - - - -
24/06:30pm 8.6 N 7 10 1011.4 - 0.0 - - - - - - -
24/06:00pm 8.9 NNW 7 16 1011.4 - 0.0 - - - - - - -
24/05:30pm 9.0 N 7 11 1011.4 - 0.0 - - - - - - -
24/05:00pm 9.1 NW 13 20 1011.2 - 0.0 - - - - - - -
24/04:30pm 9.6 NNW 12 18 1010.9 - 0.0 - - - - - - -
24/04:00pm 10.3 NNW 11 19 1010.8 - 0.0 - - - - - - -
24/03:30pm 10.8 NW 15 24 1010.5 - 0.0 - - - - - - -
24/03:00pm 11.8 NW 11 19 1010.4 - 0.0 - - - - - - -
24/02:35pm 11.7 NNW 15 25 1010.3 - 0.0 - - - - - - -
24/02:30pm 11.7 NW 16 25 1010.4 - 0.0 - - - - - - -
24/02:04pm 11.8 NNW 15 27 1010.1 - 0.0 - - - - - - -
24/02:00pm 11.9 NNW 14 21 1010.2 - 0.0 - - - - - - -
24/01:30pm 11.9 NNW 16 24 1010.5 - 0.0 - - - - - - -
24/01:00pm 11.9 NNW 16 23 1010.7 - 0.0 - - - - - - -
24/12:30pm 11.5 NNW 20 30 1010.4 - 0.0 - - - - - - -
24/12:09pm 11.4 NNW 16 26 1010.6 - 0.0 - - - - - - -
24/12:00pm 11.4 NNW 16 24 1010.8 - 0.0 - - - - - - -
24/11:40am 11.1 NNW 19 32 1010.8 - 0.0 - - - - - - -
24/11:30am 11.1 NW 18 26 1010.8 - 0.0 - - - - - - -
24/11:00am 10.6 NNW 16 25 1011.2 - 0.0 - - - - - - -
24/10:30am 10.5 NNW 15 21 1011.1 - 0.0 - - - - - - -
24/10:00am 9.9 NNW 10 15 1011.1 - 0.0 - - - - - - -
24/09:30am 8.8 NNW 14 21 1011.0 - 0.0 - - - - - - -
24/09:00am 8.3 NNW 13 18 1011.0 - 2.2 - - - - - - -
24/08:30am 7.4 NW 12 18 1010.8 - 2.2 - - - - - - -
24/08:00am 6.9 NW 12 18 1010.7 - 2.2 - - - - - - -
24/07:30am 6.5 NW 11 15 1010.2 - 2.2 - - - - - - -
24/07:00am 6.6 NW 12 18 1009.8 - 2.2 - - - - - - -
24/06:30am 6.8 NW 13 21 1009.7 - 2.2 - - - - - - -
24/06:00am 6.8 NW 15 27 1009.3 - 2.2 - - - - - - -
24/05:32am 6.8 NW 18 30 1008.8 - 2.2 - - - - - - -
24/05:30am 6.6 NW 17 24 1008.8 - 2.2 - - - - - - -
24/05:00am 6.3 NW 16 22 1008.6 - 2.2 - - - - - - -
24/04:30am 6.4 NW 16 24 1008.4 - 2.2 - - - - - - -
24/04:00am 6.0 NW 17 27 1008.2 - 2.2 - - - - - - -
24/03:30am 6.3 NW 17 27 1008.1 - 2.2 - - - - - - -
24/03:00am 6.4 NW 18 28 1008.4 - 2.2 - - - - - - -
24/02:30am 6.3 NW 20 30 1008.3 - 2.2 - - - - - - -
24/02:22am 6.4 NW 17 30 1008.2 - 2.2 - - - - - - -
24/02:00am 6.3 NW 18 27 1008.4 - 2.2 - - - - - - -
24/01:30am 6.0 NW 18 25 1008.2 - 2.2 - - - - - - -
24/01:00am 5.4 NW 13 19 1008.4 - 2.0 - - - - - - -
24/12:30am 4.6 WSW 5 9 1008.6 - 2.0 - - - - - - -
24/12:00am 4.5 SSW 4 6 1008.6 - 2.0 - - - - - - -
 
Date/Time
EST
Temp
°C
Wind Pressure Rain since
9am
mm
Weather Cloud Vis
km
Sea
Height
m
Swell
Dir  Spd
kts
Gust
kts
hPa Trend Height
m
Period
s
Dir
23/11:30pm 5.3 ENE 7 11 1008.5 - 2.0 - - - - - - -
23/11:00pm 4.6 NNE 5 7 1008.6 - 2.0 - - - - - - -
23/10:30pm 5.0 SW 4 7 1008.7 - 2.0 - - - - - - -
23/10:00pm 5.5 NE 6 8 1008.6 - 2.0 - - - - - - -
23/09:30pm 4.7 ENE 3 5 1008.3 - 2.0 - - - - - - -
23/09:00pm 5.2 SSW 7 10 1008.1 - 2.0 - - - - - - -
23/08:30pm 5.7 S 8 12 1007.7 - 2.0 - - - - - - -
23/08:00pm 6.1 SW 7 10 1007.2 - 2.0 - - - - - - -
23/07:30pm 6.0 SSW 6 10 1006.7 - 2.0 - - - - - - -
23/07:00pm 6.5 SSW 7 13 1006.4 - 2.0 - - - - - - -
23/06:30pm 6.7 SSW 10 13 1006.0 - 2.0 - - - - - - -
23/06:00pm 7.1 S 3 7 1005.5 - 2.0 - - - - - - -
23/05:30pm 7.0 SSE 6 9 1005.2 - 2.0 - - - - - - -
23/05:00pm 7.3 ESE 11 14 1004.5 - 2.0 - - - - - - -
23/04:30pm 7.1 SSE 12 17 1004.0 - 2.0 - - - - - - -
23/04:00pm 7.4 S 9 14 1003.2 - 2.0 - - - - - - -
23/03:30pm 7.6 S 12 20 1002.5 - 1.8 - - - - - - -
23/03:00pm 8.1 S 14 19 1002.1 - 1.0 Recent precip. - - - - - -
23/02:30pm 8.8 S 13 19 1001.3 - 0.6 - - - - - - -
23/02:00pm 11.2 S 3 5 1000.5 - 0.2 - - - - - - -
23/01:30pm 11.0 W 6 10 1000.4 - 0.2 - - - - - - -
23/01:00pm 12.0 WNW 6 10 1000.3 - 0.2 - - - - - - -
23/12:30pm 10.6 NW 13 19 1000.0 - 0.2 - - - - - - -
23/12:00pm 10.5 NNW 14 21 999.9 - 0.2 - - - - - - -
23/11:30am 9.9 N 13 20 999.8 - 0.2 - - - - - - -
23/11:00am 9.7 N 9 14 999.7 - 0.2 - - - - - - -
23/10:30am 9.5 NNW 14 22 999.4 - 0.0 - - - - - - -
23/10:00am 9.6 NNW 10 17 999.3 - 0.0 - - - - - - -
23/09:30am 9.5 NNE 7 11 999.4 - 0.0 - - - - - - -
23/09:00am 9.6 E 5 8 999.3 - 1.4 Recent precip. - - - - - -
23/08:30am 9.4 NNW 9 17 999.2 - 1.2 - - - - - - -
23/08:00am 9.1 NNW 11 21 998.5 - 1.2 - - - - - - -
23/07:30am 9.0 NNW 18 26 997.0 - 1.2 - - - - - - -
23/07:00am 9.3 NW 19 29 997.6 - 1.2 - - - - - - -
23/06:51am 9.5 NW 18 29 997.5 - 1.2 - - - - - - -
23/06:30am 9.9 NNW 15 21 997.4 - 1.2 - - - - - - -
23/06:00am 9.8 NNW 9 14 997.5 - 1.2 - - - - - - -
23/05:30am 9.8 NW 10 16 997.7 - 1.2 - - - - - - -
23/05:00am 10.1 NW 11 17 997.7 - 1.2 - - - - - - -
23/04:30am 9.6 NW 7 11 998.1 - 1.2 - - - - - - -
23/04:00am 9.7 NW 9 15 997.9 - 1.2 - - - - - - -
23/03:30am 10.3 NW 12 18 997.8 - 1.2 - - - - - - -
23/03:00am 10.6 NW 16 26 997.9 - 1.2 - - - - - - -
23/02:30am 10.5 NW 19 30 997.9 - 1.2 - - - - - - -
23/02:00am 11.1 NW 25 40 998.2 - 1.2 - - - - - - -
23/01:57am 11.0 NW 24 40 998.1 - 1.2 - - - - - - -
23/01:39am 10.9 NW 15 30 998.3 - 1.2 - - - - - - -
23/01:30am 10.7 NW 16 25 998.8 - 1.2 - - - - - - -
23/01:00am 11.8 WNW 18 37 999.9 - 0.4 - - - - - - -
23/12:46am 12.5 NW 15 29 999.4 - 0.0 - - - - - - -
23/12:30am 12.2 NNW 12 20 998.3 - 0.0 - - - - - - -
23/12:00am 11.9 NNW 11 18 998.6 - 0.0 - - - - - - -
 
Date/Time
EST
Temp
°C
Wind Pressure Rain since
9am
mm
Weather Cloud Vis
km
Sea
Height
m
Swell
Dir  Spd
kts
Gust
kts
hPa Trend Height
m
Period
s
Dir
22/11:30pm 11.8 NNW 12 19 999.2 - 0.0 - - - - - - -
22/11:00pm 11.8 NNW 11 18 999.7 - 0.0 - - - - - - -
22/10:30pm 11.6 N 7 12 1000.4 - 0.0 - - - - - - -
22/10:00pm 11.6 N 10 16 1001.0 - 0.0 - - - - - - -
22/09:30pm 11.6 NNW 13 18 1001.4 - 0.0 - - - - - - -
22/09:00pm 11.7 NW 9 14 1002.0 - 0.0 - - - - - - -
22/08:30pm 11.4 NNW 9 13 1002.5 - 0.0 - - - - - - -
22/08:00pm 11.6 NNW 6 11 1003.2 - 0.0 - - - - - - -
22/07:30pm 11.9 NNW 9 12 1003.6 - 0.0 - - - - - - -
22/07:00pm 12.0 N 8 13 1004.0 - 0.0 - - - - - - -
22/06:30pm 11.7 NNW 6 12 1004.4 - 0.0 - - - - - - -
22/06:00pm 11.8 NNW 8 12 1004.5 - 0.0 - - - - - - -
22/05:30pm 12.3 NW 9 13 1004.6 - 0.0 - - - - - - -
22/05:00pm 12.8 NNW 9 14 1004.9 - 0.0 - - - - - - -
22/04:30pm 12.9 NNW 5 7 1004.8 - 0.0 - - - - - - -
22/04:00pm 13.4 NW 8 14 1005.1 - 0.0 - - - - - - -
22/03:30pm 14.4 NW 7 11 1005.3 - 0.0 - - - - - - -
22/03:00pm 14.1 NW 10 16 1005.6 - 0.0 - - - - - - -

Other Formats:

Comma delimited format used in spreadsheet applications
http://www.bom.gov.au/fwo/IDT60701/IDT60701.94970.axf

JavaScript Object Notation format (JSON) in row-major order
http://www.bom.gov.au/fwo/IDT60701/IDT60701.94970.json